sensor_id;sensor_type;location;lat;lon;timestamp;P1;durP1;ratioP1;P2;durP2;ratioP2
70975;SDS011;58635;51.198;6.010;2022-07-18T00:01:45;3.58;;;1.60;;
70975;SDS011;58635;51.198;6.010;2022-07-18T00:04:10;4.13;;;1.63;;
70975;SDS011;58635;51.198;6.010;2022-07-18T00:06:36;5.50;;;1.58;;
70975;SDS011;58635;51.198;6.010;2022-07-18T00:09:02;4.20;;;1.88;;
70975;SDS011;58635;51.198;6.010;2022-07-18T00:11:28;6.22;;;1.90;;
70975;SDS011;58635;51.198;6.010;2022-07-18T00:13:53;6.70;;;2.13;;
70975;SDS011;58635;51.198;6.010;2022-07-18T00:16:19;5.45;;;1.70;;
70975;SDS011;58635;51.198;6.010;2022-07-18T00:18:44;5.43;;;1.88;;
70975;SDS011;58635;51.198;6.010;2022-07-18T00:21:10;5.32;;;1.58;;
70975;SDS011;58635;51.198;6.010;2022-07-18T00:23:36;3.60;;;1.83;;
70975;SDS011;58635;51.198;6.010;2022-07-18T00:26:01;4.43;;;1.85;;
70975;SDS011;58635;51.198;6.010;2022-07-18T00:28:27;6.45;;;1.80;;
70975;SDS011;58635;51.198;6.010;2022-07-18T00:30:52;8.57;;;1.73;;
70975;SDS011;58635;51.198;6.010;2022-07-18T00:33:18;5.47;;;1.60;;
70975;SDS011;58635;51.198;6.010;2022-07-18T00:35:43;4.38;;;1.60;;
70975;SDS011;58635;51.198;6.010;2022-07-18T00:38:09;5.05;;;1.88;;
70975;SDS011;58635;51.198;6.010;2022-07-18T00:40:34;7.47;;;1.65;;
70975;SDS011;58635;51.198;6.010;2022-07-18T00:43:00;4.53;;;1.55;;
70975;SDS011;58635;51.198;6.010;2022-07-18T00:45:25;6.32;;;1.98;;
70975;SDS011;58635;51.198;6.010;2022-07-18T00:47:51;8.50;;;1.80;;
70975;SDS011;58635;51.198;6.010;2022-07-18T00:50:17;4.22;;;1.60;;
70975;SDS011;58635;51.198;6.010;2022-07-18T00:52:43;3.28;;;1.45;;
70975;SDS011;58635;51.198;6.010;2022-07-18T00:55:09;9.20;;;1.85;;
70975;SDS011;58635;51.198;6.010;2022-07-18T00:57:34;4.50;;;1.55;;
70975;SDS011;58635;51.198;6.010;2022-07-18T01:00:01;7.75;;;1.70;;
70975;SDS011;58635;51.198;6.010;2022-07-18T01:02:48;4.93;;;1.60;;
70975;SDS011;58635;51.198;6.010;2022-07-18T01:05:13;3.67;;;1.30;;
70975;SDS011;58635;51.198;6.010;2022-07-18T01:07:38;5.38;;;2.00;;
70975;SDS011;58635;51.198;6.010;2022-07-18T01:10:04;4.00;;;1.80;;
70975;SDS011;58635;51.198;6.010;2022-07-18T01:12:30;4.82;;;1.80;;
70975;SDS011;58635;51.198;6.010;2022-07-18T01:14:56;4.30;;;1.70;;
70975;SDS011;58635;51.198;6.010;2022-07-18T01:17:22;5.28;;;1.80;;
70975;SDS011;58635;51.198;6.010;2022-07-18T01:19:48;6.20;;;2.20;;
70975;SDS011;58635;51.198;6.010;2022-07-18T01:22:14;4.95;;;1.85;;
70975;SDS011;58635;51.198;6.010;2022-07-18T01:24:42;5.03;;;2.08;;
70975;SDS011;58635;51.198;6.010;2022-07-18T01:27:08;5.65;;;1.77;;
70975;SDS011;58635;51.198;6.010;2022-07-18T01:29:38;4.47;;;1.98;;
70975;SDS011;58635;51.198;6.010;2022-07-18T01:32:04;7.55;;;2.10;;
70975;SDS011;58635;51.198;6.010;2022-07-18T01:34:33;4.43;;;1.50;;
70975;SDS011;58635;51.198;6.010;2022-07-18T01:36:59;5.38;;;1.88;;
70975;SDS011;58635;51.198;6.010;2022-07-18T01:39:25;3.83;;;1.58;;
70975;SDS011;58635;51.198;6.010;2022-07-18T01:41:58;5.80;;;1.85;;
70975;SDS011;58635;51.198;6.010;2022-07-18T01:44:42;4.55;;;1.63;;
70975;SDS011;58635;51.198;6.010;2022-07-18T01:47:08;4.20;;;2.00;;
70975;SDS011;58635;51.198;6.010;2022-07-18T01:49:35;4.07;;;1.77;;
70975;SDS011;58635;51.198;6.010;2022-07-18T01:52:02;5.97;;;1.80;;
70975;SDS011;58635;51.198;6.010;2022-07-18T01:54:30;4.50;;;1.70;;
70975;SDS011;58635;51.198;6.010;2022-07-18T01:56:56;4.25;;;1.80;;
70975;SDS011;58635;51.198;6.010;2022-07-18T01:59:23;5.57;;;1.73;;
70975;SDS011;58635;51.198;6.010;2022-07-18T02:01:49;3.85;;;1.95;;
70975;SDS011;58635;51.198;6.010;2022-07-18T02:04:15;4.20;;;1.90;;
70975;SDS011;58635;51.198;6.010;2022-07-18T02:06:41;5.28;;;1.85;;
70975;SDS011;58635;51.198;6.010;2022-07-18T02:09:07;5.45;;;1.90;;
70975;SDS011;58635;51.198;6.010;2022-07-18T02:11:34;6.20;;;1.95;;
70975;SDS011;58635;51.198;6.010;2022-07-18T02:14:00;4.90;;;1.88;;
70975;SDS011;58635;51.198;6.010;2022-07-18T02:16:26;5.50;;;2.00;;
70975;SDS011;58635;51.198;6.010;2022-07-18T02:18:52;4.78;;;2.08;;
70975;SDS011;58635;51.198;6.010;2022-07-18T02:21:18;5.05;;;1.90;;
70975;SDS011;58635;51.198;6.010;2022-07-18T02:23:43;6.20;;;1.85;;
70975;SDS011;58635;51.198;6.010;2022-07-18T02:26:09;6.60;;;1.63;;
70975;SDS011;58635;51.198;6.010;2022-07-18T02:28:35;4.50;;;2.15;;
70975;SDS011;58635;51.198;6.010;2022-07-18T02:31:01;5.22;;;2.00;;
70975;SDS011;58635;51.198;6.010;2022-07-18T02:33:28;7.10;;;2.08;;
70975;SDS011;58635;51.198;6.010;2022-07-18T02:35:53;4.78;;;1.92;;
70975;SDS011;58635;51.198;6.010;2022-07-18T02:38:18;4.75;;;2.28;;
70975;SDS011;58635;51.198;6.010;2022-07-18T02:40:44;6.65;;;2.00;;
70975;SDS011;58635;51.198;6.010;2022-07-18T02:43:09;3.78;;;1.90;;
70975;SDS011;58635;51.198;6.010;2022-07-18T02:45:35;7.20;;;2.13;;
70975;SDS011;58635;51.198;6.010;2022-07-18T02:48:00;5.55;;;2.05;;
70975;SDS011;58635;51.198;6.010;2022-07-18T02:50:26;7.57;;;1.88;;
70975;SDS011;58635;51.198;6.010;2022-07-18T02:52:51;3.75;;;1.85;;
70975;SDS011;58635;51.198;6.010;2022-07-18T02:55:17;5.75;;;2.00;;
70975;SDS011;58635;51.198;6.010;2022-07-18T02:57:42;5.25;;;2.00;;
70975;SDS011;58635;51.198;6.010;2022-07-18T03:00:09;3.92;;;1.80;;
70975;SDS011;58635;51.198;6.010;2022-07-18T03:02:36;5.25;;;1.80;;
70975;SDS011;58635;51.198;6.010;2022-07-18T03:05:03;4.32;;;1.92;;
70975;SDS011;58635;51.198;6.010;2022-07-18T03:07:29;3.60;;;2.03;;
70975;SDS011;58635;51.198;6.010;2022-07-18T03:09:55;6.10;;;1.70;;
70975;SDS011;58635;51.198;6.010;2022-07-18T03:12:21;5.70;;;1.98;;
70975;SDS011;58635;51.198;6.010;2022-07-18T03:14:46;4.07;;;1.90;;
70975;SDS011;58635;51.198;6.010;2022-07-18T03:17:12;5.32;;;2.05;;
70975;SDS011;58635;51.198;6.010;2022-07-18T03:19:37;6.25;;;2.10;;
70975;SDS011;58635;51.198;6.010;2022-07-18T03:22:03;4.60;;;1.85;;
70975;SDS011;58635;51.198;6.010;2022-07-18T03:24:29;5.68;;;2.28;;
70975;SDS011;58635;51.198;6.010;2022-07-18T03:26:56;5.30;;;2.20;;
70975;SDS011;58635;51.198;6.010;2022-07-18T03:29:22;5.32;;;2.08;;
70975;SDS011;58635;51.198;6.010;2022-07-18T03:31:47;5.15;;;2.00;;
70975;SDS011;58635;51.198;6.010;2022-07-18T03:34:12;5.25;;;2.05;;
70975;SDS011;58635;51.198;6.010;2022-07-18T03:36:38;4.32;;;2.22;;
70975;SDS011;58635;51.198;6.010;2022-07-18T03:39:04;6.18;;;2.03;;
70975;SDS011;58635;51.198;6.010;2022-07-18T03:41:31;4.90;;;2.15;;
70975;SDS011;58635;51.198;6.010;2022-07-18T03:43:56;5.05;;;2.00;;
70975;SDS011;58635;51.198;6.010;2022-07-18T03:46:22;4.10;;;2.28;;
70975;SDS011;58635;51.198;6.010;2022-07-18T03:48:47;5.38;;;2.08;;
70975;SDS011;58635;51.198;6.010;2022-07-18T03:51:13;5.07;;;2.20;;
70975;SDS011;58635;51.198;6.010;2022-07-18T03:53:38;6.10;;;2.30;;
70975;SDS011;58635;51.198;6.010;2022-07-18T03:56:04;4.93;;;2.10;;
70975;SDS011;58635;51.198;6.010;2022-07-18T03:58:29;5.25;;;2.20;;
70975;SDS011;58635;51.198;6.010;2022-07-18T04:00:55;4.88;;;2.00;;
70975;SDS011;58635;51.198;6.010;2022-07-18T04:03:20;6.15;;;2.30;;
70975;SDS011;58635;51.198;6.010;2022-07-18T04:05:46;5.18;;;2.10;;
70975;SDS011;58635;51.198;6.010;2022-07-18T04:08:12;4.82;;;2.03;;
70975;SDS011;58635;51.198;6.010;2022-07-18T04:10:37;5.47;;;2.10;;
70975;SDS011;58635;51.198;6.010;2022-07-18T04:13:05;4.95;;;2.20;;
70975;SDS011;58635;51.198;6.010;2022-07-18T04:15:32;6.82;;;2.13;;
70975;SDS011;58635;51.198;6.010;2022-07-18T04:17:59;5.28;;;1.90;;
70975;SDS011;58635;51.198;6.010;2022-07-18T04:20:25;5.50;;;2.35;;
70975;SDS011;58635;51.198;6.010;2022-07-18T04:22:57;4.90;;;2.30;;
70975;SDS011;58635;51.198;6.010;2022-07-18T04:25:26;5.50;;;2.35;;
70975;SDS011;58635;51.198;6.010;2022-07-18T04:27:53;5.60;;;2.10;;
70975;SDS011;58635;51.198;6.010;2022-07-18T04:30:21;4.95;;;2.30;;
70975;SDS011;58635;51.198;6.010;2022-07-18T04:32:49;6.35;;;2.60;;
70975;SDS011;58635;51.198;6.010;2022-07-18T04:35:15;5.68;;;2.45;;
70975;SDS011;58635;51.198;6.010;2022-07-18T04:37:40;6.72;;;2.45;;
70975;SDS011;58635;51.198;6.010;2022-07-18T04:40:07;5.35;;;2.60;;
70975;SDS011;58635;51.198;6.010;2022-07-18T04:42:34;7.22;;;2.40;;
70975;SDS011;58635;51.198;6.010;2022-07-18T04:44:59;4.90;;;2.30;;
70975;SDS011;58635;51.198;6.010;2022-07-18T04:47:25;5.97;;;2.80;;
70975;SDS011;58635;51.198;6.010;2022-07-18T04:49:52;5.75;;;2.75;;
70975;SDS011;58635;51.198;6.010;2022-07-18T04:52:17;7.82;;;2.60;;
70975;SDS011;58635;51.198;6.010;2022-07-18T04:54:43;9.13;;;4.60;;
70975;SDS011;58635;51.198;6.010;2022-07-18T04:57:08;12.00;;;3.45;;
70975;SDS011;58635;51.198;6.010;2022-07-18T04:59:36;8.80;;;4.35;;
70975;SDS011;58635;51.198;6.010;2022-07-18T05:02:02;10.27;;;3.60;;
70975;SDS011;58635;51.198;6.010;2022-07-18T05:04:30;8.77;;;3.30;;
70975;SDS011;58635;51.198;6.010;2022-07-18T05:06:56;13.48;;;3.70;;
70975;SDS011;58635;51.198;6.010;2022-07-18T05:09:21;12.65;;;3.42;;
70975;SDS011;58635;51.198;6.010;2022-07-18T05:11:46;10.82;;;3.97;;
70975;SDS011;58635;51.198;6.010;2022-07-18T05:14:12;10.55;;;4.20;;
70975;SDS011;58635;51.198;6.010;2022-07-18T05:16:37;14.15;;;8.50;;
70975;SDS011;58635;51.198;6.010;2022-07-18T05:19:03;14.95;;;4.93;;
70975;SDS011;58635;51.198;6.010;2022-07-18T05:21:28;15.00;;;4.28;;
70975;SDS011;58635;51.198;6.010;2022-07-18T05:23:55;14.43;;;4.32;;
70975;SDS011;58635;51.198;6.010;2022-07-18T05:26:21;15.50;;;4.72;;
70975;SDS011;58635;51.198;6.010;2022-07-18T05:28:46;18.23;;;5.03;;
70975;SDS011;58635;51.198;6.010;2022-07-18T05:31:12;10.55;;;4.20;;
70975;SDS011;58635;51.198;6.010;2022-07-18T05:33:37;13.25;;;4.13;;
70975;SDS011;58635;51.198;6.010;2022-07-18T05:36:03;12.77;;;4.18;;
70975;SDS011;58635;51.198;6.010;2022-07-18T05:38:29;12.73;;;4.22;;
70975;SDS011;58635;51.198;6.010;2022-07-18T05:40:54;16.02;;;3.97;;
70975;SDS011;58635;51.198;6.010;2022-07-18T05:43:20;10.45;;;4.75;;
70975;SDS011;58635;51.198;6.010;2022-07-18T05:45:45;16.40;;;6.10;;
70975;SDS011;58635;51.198;6.010;2022-07-18T05:48:10;12.02;;;4.70;;
70975;SDS011;58635;51.198;6.010;2022-07-18T05:50:36;10.93;;;4.10;;
70975;SDS011;58635;51.198;6.010;2022-07-18T05:53:01;14.60;;;3.92;;
70975;SDS011;58635;51.198;6.010;2022-07-18T05:55:27;13.00;;;4.32;;
70975;SDS011;58635;51.198;6.010;2022-07-18T05:57:53;12.15;;;4.28;;
70975;SDS011;58635;51.198;6.010;2022-07-18T06:00:18;17.83;;;4.10;;
70975;SDS011;58635;51.198;6.010;2022-07-18T06:02:46;10.45;;;3.70;;
70975;SDS011;58635;51.198;6.010;2022-07-18T06:05:13;10.80;;;4.07;;
70975;SDS011;58635;51.198;6.010;2022-07-18T06:07:38;9.27;;;3.42;;
70975;SDS011;58635;51.198;6.010;2022-07-18T06:10:04;10.80;;;4.05;;
70975;SDS011;58635;51.198;6.010;2022-07-18T06:12:30;8.48;;;3.60;;
70975;SDS011;58635;51.198;6.010;2022-07-18T06:14:56;9.40;;;3.50;;
70975;SDS011;58635;51.198;6.010;2022-07-18T06:17:22;9.45;;;3.30;;
70975;SDS011;58635;51.198;6.010;2022-07-18T06:19:47;12.77;;;4.28;;
70975;SDS011;58635;51.198;6.010;2022-07-18T06:22:13;10.52;;;4.53;;
70975;SDS011;58635;51.198;6.010;2022-07-18T06:24:38;13.85;;;3.72;;
70975;SDS011;58635;51.198;6.010;2022-07-18T06:27:04;8.05;;;3.20;;
70975;SDS011;58635;51.198;6.010;2022-07-18T06:29:29;9.60;;;3.08;;
70975;SDS011;58635;51.198;6.010;2022-07-18T06:31:54;11.40;;;3.10;;
70975;SDS011;58635;51.198;6.010;2022-07-18T06:34:20;10.55;;;3.50;;
70975;SDS011;58635;51.198;6.010;2022-07-18T06:36:45;8.70;;;2.80;;
70975;SDS011;58635;51.198;6.010;2022-07-18T06:39:11;8.18;;;2.70;;
70975;SDS011;58635;51.198;6.010;2022-07-18T06:41:37;6.78;;;2.80;;
70975;SDS011;58635;51.198;6.010;2022-07-18T06:44:03;9.82;;;2.85;;
70975;SDS011;58635;51.198;6.010;2022-07-18T06:46:29;9.80;;;2.88;;
70975;SDS011;58635;51.198;6.010;2022-07-18T06:48:54;7.00;;;2.60;;
70975;SDS011;58635;51.198;6.010;2022-07-18T06:51:20;7.10;;;2.38;;
70975;SDS011;58635;51.198;6.010;2022-07-18T06:53:45;8.35;;;2.30;;
70975;SDS011;58635;51.198;6.010;2022-07-18T06:56:10;6.53;;;2.88;;
70975;SDS011;58635;51.198;6.010;2022-07-18T06:58:36;9.30;;;2.30;;
70975;SDS011;58635;51.198;6.010;2022-07-18T07:01:01;7.60;;;2.40;;
70975;SDS011;58635;51.198;6.010;2022-07-18T07:03:27;9.25;;;2.42;;
70975;SDS011;58635;51.198;6.010;2022-07-18T07:05:52;8.38;;;2.33;;
70975;SDS011;58635;51.198;6.010;2022-07-18T07:08:17;7.95;;;2.50;;
70975;SDS011;58635;51.198;6.010;2022-07-18T07:10:43;7.80;;;2.40;;
70975;SDS011;58635;51.198;6.010;2022-07-18T07:13:08;10.90;;;2.90;;
70975;SDS011;58635;51.198;6.010;2022-07-18T07:15:34;8.43;;;3.20;;
70975;SDS011;58635;51.198;6.010;2022-07-18T07:17:59;7.43;;;2.60;;
70975;SDS011;58635;51.198;6.010;2022-07-18T07:20:24;24.75;;;17.15;;
70975;SDS011;58635;51.198;6.010;2022-07-18T07:22:51;9.00;;;3.65;;
70975;SDS011;58635;51.198;6.010;2022-07-18T07:25:21;8.15;;;3.20;;
70975;SDS011;58635;51.198;6.010;2022-07-18T07:27:48;7.95;;;3.05;;
70975;SDS011;58635;51.198;6.010;2022-07-18T07:30:14;7.97;;;2.53;;
70975;SDS011;58635;51.198;6.010;2022-07-18T07:32:42;8.35;;;2.95;;
70975;SDS011;58635;51.198;6.010;2022-07-18T07:35:09;12.55;;;3.10;;
70975;SDS011;58635;51.198;6.010;2022-07-18T07:37:38;8.55;;;3.03;;
70975;SDS011;58635;51.198;6.010;2022-07-18T07:40:04;11.68;;;3.88;;
70975;SDS011;58635;51.198;6.010;2022-07-18T07:42:30;6.82;;;2.78;;
70975;SDS011;58635;51.198;6.010;2022-07-18T07:44:55;9.65;;;2.80;;
70975;SDS011;58635;51.198;6.010;2022-07-18T07:47:21;10.02;;;2.80;;
70975;SDS011;58635;51.198;6.010;2022-07-18T07:49:46;7.57;;;2.40;;
70975;SDS011;58635;51.198;6.010;2022-07-18T07:52:11;8.77;;;3.20;;
70975;SDS011;58635;51.198;6.010;2022-07-18T07:54:38;10.98;;;3.90;;
70975;SDS011;58635;51.198;6.010;2022-07-18T07:57:05;11.40;;;4.63;;
70975;SDS011;58635;51.198;6.010;2022-07-18T07:59:30;9.90;;;3.08;;
70975;SDS011;58635;51.198;6.010;2022-07-18T08:01:57;9.23;;;2.55;;
70975;SDS011;58635;51.198;6.010;2022-07-18T08:04:23;8.18;;;2.58;;
70975;SDS011;58635;51.198;6.010;2022-07-18T08:06:48;6.78;;;2.20;;
70975;SDS011;58635;51.198;6.010;2022-07-18T08:09:14;9.00;;;2.47;;
70975;SDS011;58635;51.198;6.010;2022-07-18T08:11:39;7.22;;;2.45;;
70975;SDS011;58635;51.198;6.010;2022-07-18T08:14:05;6.07;;;2.10;;
70975;SDS011;58635;51.198;6.010;2022-07-18T08:16:30;5.50;;;2.08;;
70975;SDS011;58635;51.198;6.010;2022-07-18T08:18:56;5.50;;;1.95;;
70975;SDS011;58635;51.198;6.010;2022-07-18T08:21:21;5.10;;;1.77;;
70975;SDS011;58635;51.198;6.010;2022-07-18T08:23:46;6.95;;;2.75;;
70975;SDS011;58635;51.198;6.010;2022-07-18T08:26:13;9.68;;;2.10;;
70975;SDS011;58635;51.198;6.010;2022-07-18T08:28:39;6.03;;;2.00;;
70975;SDS011;58635;51.198;6.010;2022-07-18T08:31:04;6.05;;;2.10;;
70975;SDS011;58635;51.198;6.010;2022-07-18T08:33:29;5.95;;;1.90;;
70975;SDS011;58635;51.198;6.010;2022-07-18T08:35:55;4.25;;;1.85;;
70975;SDS011;58635;51.198;6.010;2022-07-18T08:38:20;7.18;;;2.10;;
70975;SDS011;58635;51.198;6.010;2022-07-18T08:40:47;9.88;;;1.90;;
70975;SDS011;58635;51.198;6.010;2022-07-18T08:43:13;4.13;;;1.67;;
70975;SDS011;58635;51.198;6.010;2022-07-18T08:45:42;5.68;;;1.80;;
70975;SDS011;58635;51.198;6.010;2022-07-18T08:48:08;5.93;;;1.98;;
70975;SDS011;58635;51.198;6.010;2022-07-18T08:50:34;7.80;;;2.08;;
70975;SDS011;58635;51.198;6.010;2022-07-18T08:53:00;6.40;;;2.30;;
70975;SDS011;58635;51.198;6.010;2022-07-18T08:55:26;9.82;;;2.20;;
70975;SDS011;58635;51.198;6.010;2022-07-18T08:57:51;5.60;;;1.90;;
70975;SDS011;58635;51.198;6.010;2022-07-18T09:00:18;9.88;;;4.20;;
70975;SDS011;58635;51.198;6.010;2022-07-18T09:02:43;5.95;;;2.20;;
70975;SDS011;58635;51.198;6.010;2022-07-18T09:05:16;6.63;;;2.05;;
70975;SDS011;58635;51.198;6.010;2022-07-18T09:07:43;5.30;;;1.80;;
70975;SDS011;58635;51.198;6.010;2022-07-18T09:10:08;6.63;;;2.08;;
70975;SDS011;58635;51.198;6.010;2022-07-18T09:12:34;3.90;;;1.75;;
70975;SDS011;58635;51.198;6.010;2022-07-18T09:15:06;6.63;;;1.90;;
70975;SDS011;58635;51.198;6.010;2022-07-18T09:17:35;6.63;;;1.98;;
70975;SDS011;58635;51.198;6.010;2022-07-18T09:22:36;6.95;;;2.10;;
70975;SDS011;58635;51.198;6.010;2022-07-18T09:25:10;9.27;;;2.15;;
70975;SDS011;58635;51.198;6.010;2022-07-18T09:27:40;6.25;;;1.70;;
70975;SDS011;58635;51.198;6.010;2022-07-18T09:32:51;8.40;;;1.95;;
70975;SDS011;58635;51.198;6.010;2022-07-18T09:35:29;4.07;;;1.80;;
70975;SDS011;58635;51.198;6.010;2022-07-18T09:40:34;4.93;;;1.90;;
70975;SDS011;58635;51.198;6.010;2022-07-18T09:43:07;4.82;;;2.80;;
70975;SDS011;58635;51.198;6.010;2022-07-18T09:45:35;5.65;;;2.40;;
70975;SDS011;58635;51.198;6.010;2022-07-18T09:50:35;6.93;;;2.38;;
70975;SDS011;58635;51.198;6.010;2022-07-18T09:55:44;7.40;;;2.13;;
70975;SDS011;58635;51.198;6.010;2022-07-18T09:58:14;6.10;;;1.70;;
70975;SDS011;58635;51.198;6.010;2022-07-18T10:00:43;6.97;;;1.90;;
70975;SDS011;58635;51.198;6.010;2022-07-18T10:03:08;7.47;;;1.90;;
70975;SDS011;58635;51.198;6.010;2022-07-18T10:05:35;4.88;;;1.88;;
70975;SDS011;58635;51.198;6.010;2022-07-18T10:08:04;4.68;;;2.00;;
70975;SDS011;58635;51.198;6.010;2022-07-18T10:10:33;4.93;;;1.80;;
70975;SDS011;58635;51.198;6.010;2022-07-18T10:13:00;7.30;;;2.03;;
70975;SDS011;58635;51.198;6.010;2022-07-18T10:15:29;5.70;;;2.20;;
70975;SDS011;58635;51.198;6.010;2022-07-18T10:17:57;5.05;;;1.90;;
70975;SDS011;58635;51.198;6.010;2022-07-18T10:20:24;4.28;;;1.70;;
70975;SDS011;58635;51.198;6.010;2022-07-18T10:22:53;4.25;;;1.92;;
70975;SDS011;58635;51.198;6.010;2022-07-18T10:25:21;6.78;;;1.83;;
70975;SDS011;58635;51.198;6.010;2022-07-18T10:27:52;6.60;;;2.03;;
70975;SDS011;58635;51.198;6.010;2022-07-18T10:30:36;3.55;;;1.70;;
70975;SDS011;58635;51.198;6.010;2022-07-18T10:36:07;4.05;;;1.80;;
70975;SDS011;58635;51.198;6.010;2022-07-18T10:38:34;6.00;;;2.00;;
70975;SDS011;58635;51.198;6.010;2022-07-18T10:41:00;6.00;;;2.10;;
70975;SDS011;58635;51.198;6.010;2022-07-18T10:43:40;7.18;;;1.80;;
70975;SDS011;58635;51.198;6.010;2022-07-18T10:46:07;5.60;;;2.13;;
70975;SDS011;58635;51.198;6.010;2022-07-18T10:58:56;11.75;;;7.57;;
70975;SDS011;58635;51.198;6.010;2022-07-18T11:01:26;4.63;;;2.15;;
70975;SDS011;58635;51.198;6.010;2022-07-18T11:07:07;4.47;;;1.83;;
70975;SDS011;58635;51.198;6.010;2022-07-18T11:12:19;4.45;;;1.95;;
70975;SDS011;58635;51.198;6.010;2022-07-18T11:20:41;6.40;;;1.90;;
70975;SDS011;58635;51.198;6.010;2022-07-18T11:23:20;4.00;;;2.10;;
70975;SDS011;58635;51.198;6.010;2022-07-18T11:25:48;5.90;;;1.90;;
70975;SDS011;58635;51.198;6.010;2022-07-18T11:28:15;5.40;;;2.45;;
70975;SDS011;58635;51.198;6.010;2022-07-18T11:30:41;4.50;;;2.10;;
70975;SDS011;58635;51.198;6.010;2022-07-18T11:33:20;4.32;;;1.90;;
70975;SDS011;58635;51.198;6.010;2022-07-18T11:35:50;6.00;;;1.80;;
70975;SDS011;58635;51.198;6.010;2022-07-18T11:38:16;3.67;;;1.48;;
70975;SDS011;58635;51.198;6.010;2022-07-18T11:40:49;4.07;;;2.10;;
70975;SDS011;58635;51.198;6.010;2022-07-18T11:43:19;5.45;;;1.95;;
70975;SDS011;58635;51.198;6.010;2022-07-18T11:48:33;4.50;;;1.80;;
70975;SDS011;58635;51.198;6.010;2022-07-18T11:51:00;4.68;;;1.90;;
70975;SDS011;58635;51.198;6.010;2022-07-18T11:53:26;3.83;;;2.00;;
70975;SDS011;58635;51.198;6.010;2022-07-18T11:55:53;6.10;;;2.22;;
70975;SDS011;58635;51.198;6.010;2022-07-18T11:58:20;5.90;;;1.90;;
70975;SDS011;58635;51.198;6.010;2022-07-18T12:00:47;5.72;;;2.05;;
70975;SDS011;58635;51.198;6.010;2022-07-18T12:03:17;6.18;;;2.15;;
70975;SDS011;58635;51.198;6.010;2022-07-18T12:05:48;4.28;;;1.98;;
70975;SDS011;58635;51.198;6.010;2022-07-18T12:11:09;8.35;;;5.13;;
70975;SDS011;58635;51.198;6.010;2022-07-18T12:19:17;6.72;;;1.80;;
70975;SDS011;58635;51.198;6.010;2022-07-18T12:21:55;6.38;;;2.00;;
70975;SDS011;58635;51.198;6.010;2022-07-18T12:24:36;3.70;;;1.67;;
70975;SDS011;58635;51.198;6.010;2022-07-18T12:35:23;6.63;;;1.88;;
70975;SDS011;58635;51.198;6.010;2022-07-18T12:38:05;4.28;;;1.70;;
70975;SDS011;58635;51.198;6.010;2022-07-18T12:40:39;4.40;;;1.80;;
70975;SDS011;58635;51.198;6.010;2022-07-18T12:43:35;4.05;;;1.77;;
70975;SDS011;58635;51.198;6.010;2022-07-18T12:46:02;4.47;;;1.50;;
70975;SDS011;58635;51.198;6.010;2022-07-18T12:48:31;4.40;;;1.60;;
70975;SDS011;58635;51.198;6.010;2022-07-18T12:51:01;3.53;;;1.70;;
70975;SDS011;58635;51.198;6.010;2022-07-18T12:55:56;4.40;;;1.35;;
70975;SDS011;58635;51.198;6.010;2022-07-18T12:58:22;5.00;;;1.92;;
70975;SDS011;58635;51.198;6.010;2022-07-18T13:00:47;4.15;;;3.00;;
70975;SDS011;58635;51.198;6.010;2022-07-18T13:03:13;6.82;;;1.88;;
70975;SDS011;58635;51.198;6.010;2022-07-18T13:05:39;3.38;;;1.40;;
70975;SDS011;58635;51.198;6.010;2022-07-18T13:08:05;3.70;;;1.50;;
70975;SDS011;58635;51.198;6.010;2022-07-18T13:10:32;2.92;;;1.52;;
70975;SDS011;58635;51.198;6.010;2022-07-18T13:13:00;4.28;;;2.75;;
70975;SDS011;58635;51.198;6.010;2022-07-18T13:15:27;4.40;;;1.70;;
70975;SDS011;58635;51.198;6.010;2022-07-18T13:17:52;3.47;;;1.40;;
70975;SDS011;58635;51.198;6.010;2022-07-18T13:20:18;4.22;;;1.55;;
70975;SDS011;58635;51.198;6.010;2022-07-18T13:22:43;4.68;;;1.58;;
70975;SDS011;58635;51.198;6.010;2022-07-18T13:25:10;3.60;;;1.30;;
70975;SDS011;58635;51.198;6.010;2022-07-18T13:27:36;3.22;;;1.33;;
70975;SDS011;58635;51.198;6.010;2022-07-18T13:30:03;5.13;;;1.52;;
70975;SDS011;58635;51.198;6.010;2022-07-18T13:32:30;6.03;;;1.60;;
70975;SDS011;58635;51.198;6.010;2022-07-18T13:34:56;2.80;;;1.35;;
70975;SDS011;58635;51.198;6.010;2022-07-18T13:37:21;3.30;;;1.90;;
70975;SDS011;58635;51.198;6.010;2022-07-18T13:39:47;5.72;;;1.75;;
70975;SDS011;58635;51.198;6.010;2022-07-18T13:42:13;4.63;;;1.70;;
70975;SDS011;58635;51.198;6.010;2022-07-18T13:44:38;2.83;;;1.52;;
70975;SDS011;58635;51.198;6.010;2022-07-18T13:47:04;3.40;;;1.30;;
70975;SDS011;58635;51.198;6.010;2022-07-18T13:49:29;3.10;;;1.40;;
70975;SDS011;58635;51.198;6.010;2022-07-18T13:51:55;4.63;;;1.40;;
70975;SDS011;58635;51.198;6.010;2022-07-18T13:54:21;6.60;;;1.50;;
70975;SDS011;58635;51.198;6.010;2022-07-18T13:56:47;5.18;;;1.48;;
70975;SDS011;58635;51.198;6.010;2022-07-18T13:59:12;2.17;;;1.38;;
70975;SDS011;58635;51.198;6.010;2022-07-18T14:01:38;2.97;;;1.45;;
70975;SDS011;58635;51.198;6.010;2022-07-18T14:04:04;6.05;;;1.50;;
70975;SDS011;58635;51.198;6.010;2022-07-18T14:06:30;4.32;;;1.50;;
70975;SDS011;58635;51.198;6.010;2022-07-18T14:08:55;3.38;;;1.40;;
70975;SDS011;58635;51.198;6.010;2022-07-18T14:11:21;2.80;;;1.52;;
70975;SDS011;58635;51.198;6.010;2022-07-18T14:13:47;3.22;;;1.42;;
70975;SDS011;58635;51.198;6.010;2022-07-18T14:16:12;3.08;;;1.58;;
70975;SDS011;58635;51.198;6.010;2022-07-18T14:18:38;5.45;;;2.72;;
70975;SDS011;58635;51.198;6.010;2022-07-18T14:21:04;3.55;;;2.47;;
70975;SDS011;58635;51.198;6.010;2022-07-18T14:23:30;5.20;;;1.65;;
70975;SDS011;58635;51.198;6.010;2022-07-18T14:25:55;2.65;;;1.52;;
70975;SDS011;58635;51.198;6.010;2022-07-18T14:28:21;3.13;;;1.80;;
70975;SDS011;58635;51.198;6.010;2022-07-18T14:30:46;2.80;;;1.70;;
70975;SDS011;58635;51.198;6.010;2022-07-18T14:33:22;3.10;;;1.65;;
70975;SDS011;58635;51.198;6.010;2022-07-18T14:35:48;3.03;;;1.40;;
70975;SDS011;58635;51.198;6.010;2022-07-18T14:38:14;4.70;;;3.47;;
70975;SDS011;58635;51.198;6.010;2022-07-18T14:40:39;2.95;;;1.77;;
70975;SDS011;58635;51.198;6.010;2022-07-18T14:43:04;3.00;;;1.70;;
70975;SDS011;58635;51.198;6.010;2022-07-18T14:45:33;2.92;;;1.60;;
70975;SDS011;58635;51.198;6.010;2022-07-18T14:47:58;4.07;;;1.73;;
70975;SDS011;58635;51.198;6.010;2022-07-18T14:50:24;3.13;;;1.50;;
70975;SDS011;58635;51.198;6.010;2022-07-18T14:52:49;4.38;;;1.45;;
70975;SDS011;58635;51.198;6.010;2022-07-18T14:55:15;2.20;;;1.20;;
70975;SDS011;58635;51.198;6.010;2022-07-18T14:57:40;2.33;;;1.45;;
70975;SDS011;58635;51.198;6.010;2022-07-18T15:00:07;5.35;;;1.60;;
70975;SDS011;58635;51.198;6.010;2022-07-18T15:02:34;3.10;;;1.52;;
70975;SDS011;58635;51.198;6.010;2022-07-18T15:05:00;3.72;;;1.30;;
70975;SDS011;58635;51.198;6.010;2022-07-18T15:07:26;2.33;;;1.48;;
70975;SDS011;58635;51.198;6.010;2022-07-18T15:09:55;3.28;;;1.42;;
70975;SDS011;58635;51.198;6.010;2022-07-18T15:12:20;3.42;;;1.40;;
70975;SDS011;58635;51.198;6.010;2022-07-18T15:14:46;4.07;;;1.52;;
70975;SDS011;58635;51.198;6.010;2022-07-18T15:17:12;3.67;;;2.28;;
70975;SDS011;58635;51.198;6.010;2022-07-18T15:19:37;3.13;;;1.60;;
70975;SDS011;58635;51.198;6.010;2022-07-18T15:22:03;4.20;;;1.67;;
70975;SDS011;58635;51.198;6.010;2022-07-18T15:24:30;5.07;;;1.70;;
70975;SDS011;58635;51.198;6.010;2022-07-18T15:26:57;3.50;;;1.83;;
70975;SDS011;58635;51.198;6.010;2022-07-18T15:29:22;4.75;;;1.63;;
70975;SDS011;58635;51.198;6.010;2022-07-18T15:31:48;2.60;;;1.52;;
70975;SDS011;58635;51.198;6.010;2022-07-18T15:34:13;2.75;;;1.40;;
70975;SDS011;58635;51.198;6.010;2022-07-18T15:36:39;4.18;;;1.50;;
70975;SDS011;58635;51.198;6.010;2022-07-18T15:39:04;4.53;;;1.67;;
70975;SDS011;58635;51.198;6.010;2022-07-18T15:41:30;3.80;;;1.40;;
70975;SDS011;58635;51.198;6.010;2022-07-18T15:43:56;2.75;;;1.40;;